Time;durP1;ratioP1;P1;durP2;ratioP2;P2;SDS_P1;SDS_P2;PMS_P1;PMS_P2;Temp;Humidity;BMP_temperature;BMP_pressure;BME280_temperature;BME280_humidity;BME280_pressure;Samples;Min_cycle;Max_cycle;Signal;HPM_P1;HPM_P2
2023/10/03 00:01:41;;;;;;;64.15;60.42;;;21.50;99.90;;;;;;5051503;28;20037;-72
2023/10/03 00:04:10;;;;;;;69.82;65.80;;;21.50;99.90;;;;;;5052848;28;20391;-72
2023/10/03 00:06:38;;;;;;;55.20;52.13;;;21.40;99.90;;;;;;5052400;28;20033;-73
2023/10/03 00:09:08;;;;;;;57.28;53.83;;;21.40;99.90;;;;;;5052873;28;20479;-72
2023/10/03 00:11:35;;;;;;;58.45;54.85;;;21.50;99.90;;;;;;5052258;28;20052;-72
2023/10/03 00:14:06;;;;;;;64.03;60.45;;;21.40;99.90;;;;;;5052620;28;20060;-72
2023/10/03 00:16:34;;;;;;;63.72;60.00;;;21.40;99.90;;;;;;5051483;28;20045;-73
2023/10/03 00:19:00;;;;;;;61.67;58.13;;;21.40;99.90;;;;;;5052467;28;20056;-72
2023/10/03 00:21:27;;;;;;;66.38;62.65;;;21.40;99.90;;;;;;5052339;28;20033;-72
2023/10/03 00:23:53;;;;;;;63.88;60.17;;;21.50;99.90;;;;;;5057342;28;20044;-72
2023/10/03 00:26:22;;;;;;;61.58;58.03;;;21.40;99.90;;;;;;5052019;28;20043;-72
2023/10/03 00:28:49;;;;;;;57.40;53.90;;;21.50;99.90;;;;;;5051861;28;20484;-72
2023/10/03 00:31:15;;;;;;;51.22;48.35;;;21.40;99.90;;;;;;5050272;28;20041;-72
2023/10/03 00:33:41;;;;;;;60.50;57.10;;;21.40;99.90;;;;;;5052142;28;20387;-72
2023/10/03 00:36:21;;;;;;;62.17;58.08;;;21.50;99.90;;;;;;5052970;28;20052;-72
2023/10/03 00:38:47;;;;;;;54.95;51.65;;;21.50;99.90;;;;;;5063342;28;20032;-72
2023/10/03 00:41:14;;;;;;;59.00;55.40;;;21.50;99.90;;;;;;5063255;28;20081;-72
2023/10/03 00:44:01;;;;;;;62.80;59.20;;;21.50;99.90;;;;;;5052351;28;20032;-72
2023/10/03 00:46:29;;;;;;;54.50;51.08;;;21.50;99.90;;;;;;5050863;28;20033;-72
2023/10/03 00:48:56;;;;;;;60.42;56.97;;;21.50;99.90;;;;;;5063612;28;20044;-73
2023/10/03 00:51:27;;;;;;;53.47;50.40;;;21.50;99.90;;;;;;5071954;28;20047;-72
2023/10/03 00:53:56;;;;;;;55.40;52.15;;;21.50;99.90;;;;;;5070842;28;20111;-72
2023/10/03 00:56:22;;;;;;;60.50;56.70;;;21.50;99.90;;;;;;5043663;28;20037;-72
2023/10/03 00:58:48;;;;;;;56.47;53.13;;;21.50;99.90;;;;;;5051574;28;20033;-72
2023/10/03 01:01:15;;;;;;;58.97;55.55;;;21.50;99.90;;;;;;5051217;28;20606;-72
2023/10/03 01:03:41;;;;;;;53.60;50.33;;;21.50;99.90;;;;;;5050253;28;20033;-72
2023/10/03 01:06:12;;;;;;;54.97;51.70;;;21.50;99.90;;;;;;5050032;28;20403;-72
2023/10/03 01:08:39;;;;;;;57.33;53.97;;;21.50;99.90;;;;;;5053204;28;20531;-73
2023/10/03 01:11:20;;;;;;;52.15;49.00;;;21.50;99.90;;;;;;5052553;28;20028;-72
2023/10/03 01:13:49;;;;;;;51.47;48.55;;;21.50;99.90;;;;;;5051349;28;20484;-72
2023/10/03 01:16:39;;;;;;;57.05;53.33;;;21.50;99.90;;;;;;5056863;28;20033;-72
2023/10/03 01:19:16;;;;;;;52.40;49.28;;;21.50;99.90;;;;;;5050345;28;20040;-72
2023/10/03 01:21:42;;;;;;;52.13;48.85;;;21.60;99.90;;;;;;5051301;28;20040;-72
2023/10/03 01:24:09;;;;;;;56.67;53.13;;;21.50;99.90;;;;;;5052057;28;20048;-72
2023/10/03 01:26:36;;;;;;;55.72;52.33;;;21.50;99.90;;;;;;5051565;28;20044;-72
2023/10/03 01:29:02;;;;;;;58.35;54.80;;;21.50;99.90;;;;;;5051970;28;20044;-72
2023/10/03 01:31:28;;;;;;;52.45;49.22;;;21.40;99.90;;;;;;5050786;28;20040;-72
2023/10/03 01:33:54;;;;;;;56.13;52.78;;;21.40;99.90;;;;;;5051710;28;20034;-72
2023/10/03 01:36:20;;;;;;;57.78;54.42;;;21.40;99.90;;;;;;5051309;28;20368;-72
2023/10/03 01:38:47;;;;;;;54.70;51.00;;;21.40;99.90;;;;;;5063738;28;20039;-72
2023/10/03 01:41:13;;;;;;;56.42;52.55;;;21.40;99.90;;;;;;5062412;28;20395;-72
2023/10/03 01:43:43;;;;;;;49.85;46.35;;;21.40;99.90;;;;;;5051197;28;20036;-72
2023/10/03 01:46:17;;;;;;;48.70;45.47;;;21.40;99.90;;;;;;5051320;28;20497;-72
2023/10/03 01:48:43;;;;;;;60.22;56.53;;;21.30;99.90;;;;;;5051616;28;20387;-70
2023/10/03 01:51:09;;;;;;;58.83;55.15;;;21.30;99.90;;;;;;5051225;28;20036;-72
2023/10/03 01:53:36;;;;;;;67.50;63.20;;;21.30;99.90;;;;;;5051573;28;20032;-72
2023/10/03 01:56:04;;;;;;;63.72;59.45;;;21.30;99.90;;;;;;5053911;28;20526;-72
2023/10/03 01:58:34;;;;;;;68.13;64.00;;;21.30;99.90;;;;;;5064314;28;20049;-72
2023/10/03 02:01:00;;;;;;;79.05;74.25;;;21.20;99.90;;;;;;5066593;28;20779;-72
2023/10/03 02:03:29;;;;;;;75.70;71.22;;;21.10;99.90;;;;;;5055000;28;20041;-72
2023/10/03 02:05:55;;;;;;;86.55;81.57;;;21.10;99.90;;;;;;5054904;28;20052;-72
2023/10/03 02:08:23;;;;;;;76.05;71.50;;;21.10;99.90;;;;;;5055317;28;20479;-72
2023/10/03 02:10:50;;;;;;;69.50;65.13;;;21.20;99.90;;;;;;5053812;28;20483;-72
2023/10/03 02:13:17;;;;;;;75.43;70.43;;;21.10;99.90;;;;;;5053637;28;20479;-72
2023/10/03 02:15:53;;;;;;;78.53;73.53;;;21.10;99.90;;;;;;5053663;28;20053;-73
2023/10/03 02:18:19;;;;;;;66.13;61.83;;;21.10;99.90;;;;;;5058858;28;20029;-72
2023/10/03 02:20:59;;;;;;;60.97;57.08;;;21.00;99.90;;;;;;5054375;28;20391;-72
2023/10/03 02:23:26;;;;;;;63.75;59.72;;;21.00;99.90;;;;;;5055022;28;20414;-72
2023/10/03 02:26:03;;;;;;;62.30;58.28;;;21.00;99.90;;;;;;5053570;28;20033;-72
2023/10/03 02:28:29;;;;;;;56.20;52.42;;;21.00;99.90;;;;;;5061243;28;20487;-73
2023/10/03 02:30:57;;;;;;;64.03;59.83;;;21.00;99.90;;;;;;5067480;28;20471;-72
2023/10/03 02:33:24;;;;;;;66.90;62.83;;;21.00;99.90;;;;;;5055027;28;20041;-71
2023/10/03 02:35:50;;;;;;;73.30;68.80;;;21.00;99.90;;;;;;5054190;28;20049;-72
2023/10/03 02:38:24;;;;;;;72.78;68.00;;;21.00;99.90;;;;;;5052390;28;20040;-72
2023/10/03 02:41:00;;;;;;;81.90;76.72;;;21.00;99.90;;;;;;5053789;28;20048;-72
2023/10/03 02:43:34;;;;;;;84.88;79.70;;;21.00;99.90;;;;;;5053010;28;20025;-72
2023/10/03 02:46:00;;;;;;;75.55;70.40;;;21.10;99.90;;;;;;5053749;28;20025;-72
2023/10/03 02:48:26;;;;;;;92.82;87.35;;;21.10;99.90;;;;;;5061147;28;20043;-72
2023/10/03 02:50:52;;;;;;;93.82;88.28;;;21.10;99.90;;;;;;5067654;28;20494;-72
2023/10/03 02:53:21;;;;;;;98.88;93.18;;;21.10;99.90;;;;;;5054159;28;20029;-72
2023/10/03 02:55:48;;;;;;;99.32;93.43;;;21.10;99.90;;;;;;5052954;28;20041;-72
2023/10/03 02:58:15;;;;;;;86.80;81.63;;;21.00;99.90;;;;;;5058611;28;20020;-72
2023/10/03 03:00:41;;;;;;;94.55;88.65;;;20.90;99.90;;;;;;5069057;28;20076;-72
2023/10/03 03:03:11;;;;;;;92.25;85.95;;;21.00;99.90;;;;;;5053999;28;20041;-72
2023/10/03 03:05:38;;;;;;;87.55;81.90;;;21.00;99.90;;;;;;5053200;28;20036;-72
2023/10/03 03:08:15;;;;;;;93.20;87.45;;;20.90;99.90;;;;;;5053454;28;20056;-72
2023/10/03 03:10:41;;;;;;;87.93;81.78;;;20.90;99.90;;;;;;5053199;28;20041;-72
2023/10/03 03:13:08;;;;;;;91.30;85.60;;;20.90;99.90;;;;;;5053772;28;20060;-72
2023/10/03 03:15:37;;;;;;;89.10;83.32;;;20.90;99.90;;;;;;5049729;28;20048;-72
2023/10/03 03:18:04;;;;;;;90.40;84.90;;;20.90;99.90;;;;;;5049350;28;20040;-71
2023/10/03 03:20:37;;;;;;;86.00;80.25;;;20.90;99.90;;;;;;5052286;28;20060;-72
2023/10/03 03:23:03;;;;;;;84.20;79.03;;;20.80;99.90;;;;;;5050096;28;20598;-72
2023/10/03 03:25:39;;;;;;;93.82;88.18;;;20.90;99.90;;;;;;5041629;28;20217;-72
2023/10/03 03:28:12;;;;;;;89.32;83.78;;;20.90;99.90;;;;;;5056158;28;20381;-72
2023/10/03 03:30:56;;;;;;;87.90;82.43;;;20.90;99.90;;;;;;5058368;28;20033;-72
2023/10/03 03:33:27;;;;;;;88.13;82.47;;;21.00;99.90;;;;;;5053476;28;20037;-72
2023/10/03 03:35:56;;;;;;;92.25;86.57;;;21.00;99.90;;;;;;5056971;28;20052;-72
2023/10/03 03:38:23;;;;;;;86.85;81.35;;;21.00;99.90;;;;;;5072371;28;20052;-72
2023/10/03 03:40:59;;;;;;;96.68;90.70;;;21.00;99.90;;;;;;5067710;28;20033;-71
2023/10/03 03:43:25;;;;;;;94.53;88.53;;;21.00;99.90;;;;;;5053263;28;20399;-72
2023/10/03 03:45:52;;;;;;;99.50;93.13;;;21.00;99.90;;;;;;5058307;28;20041;-73
2023/10/03 03:48:22;;;;;;;99.60;93.03;;;20.90;99.90;;;;;;5063009;28;20037;-72
2023/10/03 03:50:52;;;;;;;91.38;85.57;;;21.00;99.90;;;;;;5052806;28;20044;-72
2023/10/03 03:53:19;;;;;;;93.85;88.25;;;21.00;99.90;;;;;;5053604;28;20032;-72
2023/10/03 03:55:46;;;;;;;98.55;92.20;;;21.00;99.90;;;;;;5051525;28;20068;-71
2023/10/03 03:58:16;;;;;;;98.22;92.15;;;21.00;99.90;;;;;;5053083;28;20052;-71
2023/10/03 04:00:47;;;;;;;101.10;94.75;;;21.00;99.90;;;;;;5053533;28;20033;-71
2023/10/03 04:03:14;;;;;;;96.45;90.18;;;21.00;99.90;;;;;;5052678;28;20060;-71
2023/10/03 04:05:41;;;;;;;95.65;89.97;;;21.00;99.90;;;;;;5052323;28;20507;-71
2023/10/03 04:08:08;;;;;;;102.40;96.22;;;21.00;99.90;;;;;;5052759;28;20041;-71
2023/10/03 04:10:36;;;;;;;95.47;89.53;;;20.90;99.90;;;;;;5052115;28;20033;-71
2023/10/03 04:13:09;;;;;;;97.22;90.53;;;20.90;99.90;;;;;;5053136;28;20490;-71
2023/10/03 04:15:43;;;;;;;94.30;88.65;;;20.90;99.90;;;;;;5051298;28;20408;-71
2023/10/03 04:18:14;;;;;;;95.55;89.88;;;20.90;99.90;;;;;;5052655;28;20048;-70
2023/10/03 04:20:44;;;;;;;94.25;88.10;;;20.90;99.90;;;;;;5052491;28;20029;-71
2023/10/03 04:23:11;;;;;;;89.30;83.53;;;20.90;99.90;;;;;;5052295;28;20040;-71
2023/10/03 04:25:40;;;;;;;96.00;90.05;;;20.90;99.90;;;;;;5052216;28;20033;-71
2023/10/03 04:28:07;;;;;;;124.63;117.22;;;20.90;99.90;;;;;;5052475;28;20029;-71
2023/10/03 04:30:33;;;;;;;101.85;95.88;;;20.90;99.90;;;;;;5051661;28;20036;-71
2023/10/03 04:32:59;;;;;;;93.97;88.22;;;20.90;99.90;;;;;;5052858;28;20041;-71
2023/10/03 04:35:25;;;;;;;104.00;98.35;;;20.90;99.90;;;;;;5051883;28;20047;-70
2023/10/03 04:37:52;;;;;;;97.68;92.32;;;20.90;99.90;;;;;;5052325;28;20048;-71
2023/10/03 04:40:22;;;;;;;103.85;98.22;;;20.90;99.90;;;;;;5052085;28;20068;-71
2023/10/03 04:42:49;;;;;;;89.63;84.28;;;20.70;99.90;;;;;;5052222;28;20029;-71
2023/10/03 04:45:18;;;;;;;99.68;94.28;;;20.60;99.90;;;;;;5051814;28;20029;-71
2023/10/03 04:47:45;;;;;;;94.53;89.35;;;20.50;99.90;;;;;;5052353;28;20045;-71
2023/10/03 04:50:11;;;;;;;85.43;80.65;;;20.50;99.90;;;;;;5052011;28;20221;-71
2023/10/03 04:52:38;;;;;;;87.35;82.45;;;20.50;99.90;;;;;;5051972;28;20480;-71
2023/10/03 04:55:05;;;;;;;84.63;79.72;;;20.50;99.90;;;;;;5052204;28;20403;-71
2023/10/03 04:57:31;;;;;;;102.72;97.00;;;20.40;99.90;;;;;;5051859;28;20036;-71
2023/10/03 04:59:57;;;;;;;98.15;92.85;;;20.40;99.90;;;;;;5052133;28;20464;-71
2023/10/03 05:02:23;;;;;;;94.50;89.00;;;20.40;99.90;;;;;;5051297;28;20037;-71
2023/10/03 05:04:49;;;;;;;96.75;90.90;;;20.40;99.90;;;;;;5052028;28;20403;-71
2023/10/03 05:07:15;;;;;;;105.78;100.03;;;20.50;99.90;;;;;;5051464;28;20029;-71
2023/10/03 05:09:41;;;;;;;82.40;77.75;;;20.40;99.90;;;;;;5052009;28;20040;-71
2023/10/03 05:12:07;;;;;;;88.40;83.22;;;20.40;99.90;;;;;;5051498;28;20395;-71
2023/10/03 05:14:34;;;;;;;85.32;80.53;;;20.40;99.90;;;;;;5051350;28;20041;-71
2023/10/03 05:17:01;;;;;;;87.90;82.93;;;20.30;99.90;;;;;;5049104;28;20041;-71
2023/10/03 05:19:28;;;;;;;88.95;83.65;;;20.30;99.90;;;;;;5052119;28;20037;-71
2023/10/03 05:21:54;;;;;;;85.93;80.90;;;20.30;99.90;;;;;;5050845;28;20052;-71
2023/10/03 05:24:20;;;;;;;118.50;112.05;;;20.40;99.90;;;;;;5052258;28;20063;-71
2023/10/03 05:26:48;;;;;;;96.00;90.65;;;20.40;99.90;;;;;;5051413;28;20033;-71
2023/10/03 05:29:16;;;;;;;117.82;111.30;;;20.40;99.90;;;;;;5052986;28;20067;-71
2023/10/03 05:31:42;;;;;;;113.32;106.95;;;20.40;99.90;;;;;;5052898;28;20036;-71
2023/10/03 05:34:09;;;;;;;112.90;106.75;;;20.30;99.90;;;;;;5066374;28;20049;-70
2023/10/03 05:36:35;;;;;;;102.55;96.78;;;20.30;99.90;;;;;;5054267;28;20056;-72
2023/10/03 05:39:03;;;;;;;93.88;88.72;;;20.40;99.90;;;;;;5053678;28;20032;-71
2023/10/03 05:41:29;;;;;;;76.13;71.28;;;20.40;99.90;;;;;;5045208;28;20043;-71
2023/10/03 05:43:55;;;;;;;85.90;80.95;;;20.30;99.90;;;;;;5055699;28;20025;-72
2023/10/03 05:46:21;;;;;;;85.60;80.63;;;20.40;99.90;;;;;;5071121;28;20037;-71
2023/10/03 05:48:47;;;;;;;101.90;96.40;;;20.30;99.90;;;;;;5069512;28;20029;-72
2023/10/03 05:51:13;;;;;;;93.88;88.47;;;20.30;99.90;;;;;;5062546;28;20035;-72
2023/10/03 05:53:40;;;;;;;89.95;84.80;;;20.30;99.90;;;;;;5054481;28;20029;-72
2023/10/03 05:56:06;;;;;;;105.97;99.78;;;20.30;99.90;;;;;;5043255;28;20506;-71
2023/10/03 05:58:32;;;;;;;103.00;96.97;;;20.40;99.90;;;;;;5055315;28;20040;-72
2023/10/03 06:00:59;;;;;;;95.30;90.25;;;20.40;99.90;;;;;;5054464;28;20033;-72
2023/10/03 06:03:25;;;;;;;86.60;81.68;;;20.50;99.90;;;;;;5054756;28;20052;-71
2023/10/03 06:05:51;;;;;;;95.82;90.53;;;20.50;99.90;;;;;;5054635;28;20072;-71
2023/10/03 06:08:18;;;;;;;99.68;94.07;;;20.50;99.90;;;;;;5054794;28;20025;-72
2023/10/03 06:10:44;;;;;;;102.53;96.70;;;20.60;99.90;;;;;;5053077;28;20044;-70
2023/10/03 06:13:10;;;;;;;110.63;104.57;;;20.60;99.90;;;;;;5047308;28;20028;-72
2023/10/03 06:15:40;;;;;;;99.40;93.80;;;20.60;99.90;;;;;;5038332;28;20041;-72
2023/10/03 06:18:08;;;;;;;103.90;97.82;;;20.60;99.90;;;;;;5059131;28;20383;-72
2023/10/03 06:20:34;;;;;;;100.07;94.20;;;20.50;99.90;;;;;;5053995;28;20037;-72
2023/10/03 06:23:04;;;;;;;94.43;88.57;;;20.40;99.90;;;;;;5054427;28;20041;-72
2023/10/03 06:25:31;;;;;;;97.40;91.40;;;20.40;99.90;;;;;;5061364;28;20032;-72
2023/10/03 06:27:57;;;;;;;100.10;93.93;;;20.40;99.90;;;;;;5074557;28;20045;-72
2023/10/03 06:30:23;;;;;;;99.68;93.93;;;20.40;99.90;;;;;;5073904;28;20044;-72
2023/10/03 06:32:49;;;;;;;92.57;86.85;;;20.40;99.90;;;;;;5057641;28;20044;-72
2023/10/03 06:35:17;;;;;;;96.38;90.22;;;20.30;99.90;;;;;;5061390;28;20037;-72
2023/10/03 06:37:44;;;;;;;94.32;88.78;;;20.30;99.90;;;;;;5047006;28;20037;-67
2023/10/03 06:40:13;;;;;;;97.68;91.78;;;20.30;99.90;;;;;;5045933;28;20041;-67
2023/10/03 06:42:40;;;;;;;95.85;89.70;;;20.40;99.90;;;;;;5070452;28;20045;-67
2023/10/03 06:45:13;;;;;;;102.95;96.68;;;20.40;99.90;;;;;;5069007;28;20044;-66
2023/10/03 06:47:40;;;;;;;104.32;98.03;;;20.40;99.90;;;;;;5052183;28;20040;-65
2023/10/03 06:50:07;;;;;;;95.22;89.60;;;20.50;99.90;;;;;;5051921;28;20037;-66
2023/10/03 06:52:34;;;;;;;99.97;94.15;;;20.50;99.90;;;;;;5053922;28;20029;-65
2023/10/03 06:55:03;;;;;;;114.63;107.55;;;20.50;99.90;;;;;;5054235;28;20048;-66
2023/10/03 06:57:29;;;;;;;121.30;114.50;;;20.50;99.90;;;;;;5049177;28;20049;-67
2023/10/03 06:59:56;;;;;;;100.00;94.15;;;20.60;99.90;;;;;;5054205;28;20033;-67
2023/10/03 07:02:22;;;;;;;95.20;88.85;;;20.70;99.90;;;;;;5053996;28;20041;-73
2023/10/03 07:04:48;;;;;;;95.85;90.00;;;20.70;99.90;;;;;;5053829;28;20052;-70
2023/10/03 07:07:14;;;;;;;103.93;97.78;;;20.70;99.90;;;;;;5050665;28;20021;-71
2023/10/03 07:09:40;;;;;;;94.40;88.18;;;20.80;99.90;;;;;;5062152;28;20033;-72
2023/10/03 07:12:09;;;;;;;89.30;83.75;;;20.70;99.90;;;;;;5062388;28;20036;-72
2023/10/03 07:14:35;;;;;;;97.40;91.47;;;20.50;99.90;;;;;;5065051;28;20049;-72
2023/10/03 07:17:03;;;;;;;113.35;106.97;;;20.50;99.90;;;;;;5072387;28;20040;-73
2023/10/03 07:19:30;;;;;;;100.93;95.20;;;20.40;99.90;;;;;;5073080;28;20056;-72
2023/10/03 07:21:59;;;;;;;92.60;87.22;;;20.40;99.90;;;;;;5065873;28;20079;-72
2023/10/03 07:24:25;;;;;;;91.18;85.57;;;20.40;99.90;;;;;;5053089;28;20029;-72
2023/10/03 07:26:51;;;;;;;83.72;78.90;;;20.40;99.90;;;;;;5053191;28;20033;-72
2023/10/03 07:29:17;;;;;;;82.05;77.32;;;20.40;99.90;;;;;;5051492;28;20044;-72
2023/10/03 07:31:44;;;;;;;84.38;79.50;;;20.40;99.90;;;;;;5050796;28;20044;-72
2023/10/03 07:34:10;;;;;;;81.63;76.93;;;20.30;99.90;;;;;;5052914;28;20483;-72
2023/10/03 07:36:40;;;;;;;79.38;74.70;;;20.40;99.90;;;;;;5052792;28;20499;-72
2023/10/03 07:39:07;;;;;;;83.22;78.13;;;20.30;99.90;;;;;;5052977;28;20037;-72
2023/10/03 07:41:33;;;;;;;88.13;82.95;;;20.30;99.90;;;;;;5053123;28;20036;-72
2023/10/03 07:43:59;;;;;;;95.43;89.78;;;20.30;99.90;;;;;;5052793;28;20029;-72
2023/10/03 07:46:25;;;;;;;72.85;68.10;;;20.30;99.90;;;;;;5051616;28;20028;-72
2023/10/03 07:48:54;;;;;;;82.93;78.18;;;20.30;99.90;;;;;;5051548;28;20033;-71
2023/10/03 07:51:29;;;;;;;83.38;78.43;;;20.30;99.90;;;;;;5053144;28;20037;-72
2023/10/03 07:53:55;;;;;;;77.30;72.22;;;20.30;99.90;;;;;;5054290;28;20045;-73
2023/10/03 07:56:30;;;;;;;77.43;72.97;;;20.20;99.90;;;;;;5052016;28;20040;-71
2023/10/03 07:58:56;;;;;;;85.47;80.50;;;20.20;99.90;;;;;;5052992;28;20037;-71
2023/10/03 08:01:25;;;;;;;81.85;77.07;;;20.10;99.90;;;;;;5051881;28;20063;-71
2023/10/03 08:03:56;;;;;;;75.75;71.47;;;20.10;99.90;;;;;;5046034;28;20037;-71
2023/10/03 08:06:23;;;;;;;71.78;67.43;;;20.10;99.90;;;;;;5032762;28;20472;-73
2023/10/03 08:08:53;;;;;;;67.65;63.60;;;20.10;99.90;;;;;;5031517;28;20388;-72
2023/10/03 08:11:30;;;;;;;43.40;40.55;;;20.00;99.90;;;;;;5032894;28;20366;-72
2023/10/03 08:13:56;;;;;;;42.45;39.60;;;19.80;99.90;;;;;;5047551;28;20044;-73
2023/10/03 08:16:23;;;;;;;44.30;41.63;;;19.50;99.90;;;;;;5051941;28;20052;-73
2023/10/03 08:18:58;;;;;;;37.30;35.03;;;19.60;99.90;;;;;;5052260;28;20025;-72
2023/10/03 08:21:30;;;;;;;33.83;31.88;;;19.60;99.90;;;;;;5052530;28;20514;-73
2023/10/03 08:23:57;;;;;;;43.92;41.15;;;19.50;99.90;;;;;;5050242;28;20040;-73
2023/10/03 08:26:25;;;;;;;35.33;32.92;;;19.40;99.90;;;;;;5051403;28;20048;-73
2023/10/03 08:28:59;;;;;;;35.90;33.70;;;19.30;99.90;;;;;;5048562;28;20044;-74
2023/10/03 08:31:27;;;;;;;37.50;35.15;;;19.30;99.90;;;;;;5048524;28;20037;-73
2023/10/03 08:33:56;;;;;;;45.10;42.10;;;19.30;99.90;;;;;;5052404;28;20041;-73
2023/10/03 08:36:31;;;;;;;36.85;34.55;;;19.20;99.90;;;;;;5051660;28;20052;-73
2023/10/03 08:39:04;;;;;;;39.85;37.42;;;19.30;99.90;;;;;;5052041;28;20467;-73
2023/10/03 08:41:57;;;;;;;37.85;35.45;;;19.30;99.90;;;;;;5052337;28;20055;-73
2023/10/03 08:44:24;;;;;;;36.97;34.38;;;19.40;99.90;;;;;;5046784;28;20495;-73
2023/10/03 08:46:55;;;;;;;38.25;36.00;;;19.40;99.90;;;;;;5051547;28;20487;-73
2023/10/03 08:49:26;;;;;;;34.95;32.40;;;19.40;99.90;;;;;;5052091;28;20092;-73
2023/10/03 08:51:54;;;;;;;46.05;43.22;;;19.70;99.90;;;;;;5052077;28;20037;-73
2023/10/03 08:54:20;;;;;;;44.95;42.42;;;19.80;99.90;;;;;;5034093;28;20073;-73
2023/10/03 08:56:46;;;;;;;44.00;41.40;;;19.90;99.90;;;;;;5045101;28;20096;-73
2023/10/03 08:59:15;;;;;;;46.17;43.17;;;19.90;99.90;;;;;;5051132;28;20037;-74
2023/10/03 09:01:43;;;;;;;52.25;49.25;;;20.00;99.90;;;;;;5051090;28;20376;-73
2023/10/03 09:04:18;;;;;;;58.00;54.85;;;20.10;99.90;;;;;;5051868;28;20037;-73
2023/10/03 09:06:47;;;;;;;67.15;63.17;;;20.30;99.90;;;;;;5054677;28;20040;-72
2023/10/03 09:09:13;;;;;;;71.63;67.68;;;20.40;99.90;;;;;;5056372;28;20033;-73
2023/10/03 09:11:44;;;;;;;75.38;71.13;;;20.50;99.90;;;;;;5055659;28;20041;-73
2023/10/03 09:14:19;;;;;;;87.97;83.25;;;20.60;99.90;;;;;;5055840;28;20048;-73
2023/10/03 09:16:50;;;;;;;118.95;112.88;;;20.60;99.90;;;;;;5054984;28;20049;-73
2023/10/03 09:19:37;;;;;;;114.20;108.18;;;20.70;99.90;;;;;;5057579;28;20040;-73
2023/10/03 09:22:03;;;;;;;145.02;137.55;;;20.70;99.90;;;;;;5057266;28;20510;-74
2023/10/03 09:24:39;;;;;;;120.03;113.75;;;20.80;99.90;;;;;;5052405;28;20040;-74
2023/10/03 09:27:17;;;;;;;162.73;154.35;;;20.80;99.90;;;;;;5037699;28;20045;-73
2023/10/03 09:29:45;;;;;;;142.43;135.00;;;20.70;99.90;;;;;;5057753;28;20028;-73
2023/10/03 09:32:15;;;;;;;126.05;119.35;;;20.80;99.90;;;;;;5055306;28;20479;-72
2023/10/03 09:34:42;;;;;;;121.68;115.40;;;20.80;99.90;;;;;;5055856;28;20048;-73
2023/10/03 09:37:08;;;;;;;146.93;139.52;;;20.90;99.90;;;;;;5055102;28;20400;-73
2023/10/03 09:39:50;;;;;;;168.90;160.25;;;21.00;99.90;;;;;;5052855;28;20036;-73
2023/10/03 09:42:16;;;;;;;169.73;161.05;;;21.10;99.90;;;;;;5056544;28;20480;-72
2023/10/03 09:44:43;;;;;;;173.73;164.73;;;21.10;99.90;;;;;;5054552;28;20422;-74
2023/10/03 09:47:12;;;;;;;121.45;115.18;;;21.00;99.90;;;;;;5035714;28;20037;-73
2023/10/03 09:49:39;;;;;;;181.35;172.00;;;20.90;99.90;;;;;;5034745;28;20049;-73
2023/10/03 09:52:09;;;;;;;138.38;131.05;;;20.80;99.90;;;;;;5035047;28;20021;-73
2023/10/03 09:54:36;;;;;;;122.85;116.47;;;20.90;99.90;;;;;;5036058;28;20052;-73
2023/10/03 09:57:15;;;;;;;116.13;110.15;;;20.80;99.90;;;;;;5034383;28;20073;-73
2023/10/03 09:59:48;;;;;;;127.45;120.93;;;20.80;99.90;;;;;;5034998;28;20041;-74
2023/10/03 10:02:15;;;;;;;111.25;105.47;;;20.80;99.90;;;;;;5034534;28;20396;-73
2023/10/03 10:04:47;;;;;;;123.97;117.68;;;20.80;99.90;;;;;;5034250;28;20249;-73
2023/10/03 10:07:29;;;;;;;140.70;133.43;;;20.90;99.90;;;;;;5034557;28;20033;-73
2023/10/03 10:10:09;;;;;;;174.32;165.32;;;21.00;99.90;;;;;;5033737;28;20042;-73
2023/10/03 10:12:38;;;;;;;143.40;136.13;;;21.00;99.90;;;;;;5035213;28;20045;-73
2023/10/03 10:17:45;;;;;;;147.50;139.93;;;21.00;99.90;;;;;;5057030;28;20041;-74
2023/10/03 10:20:12;;;;;;;138.45;131.23;;;21.10;99.90;;;;;;5054030;28;20156;-73
2023/10/03 10:23:01;;;;;;;96.47;91.60;;;21.10;99.90;;;;;;5052391;28;20395;-74
2023/10/03 10:25:31;;;;;;;104.93;99.63;;;21.00;99.90;;;;;;5033092;28;20068;-73
2023/10/03 10:28:06;;;;;;;104.20;98.90;;;20.90;99.90;;;;;;5034679;28;20025;-74
2023/10/03 10:30:33;;;;;;;111.70;106.13;;;20.80;99.90;;;;;;5053580;28;20040;-74
2023/10/03 10:33:15;;;;;;;106.07;100.35;;;20.80;99.90;;;;;;5039429;28;20437;-73
2023/10/03 10:36:03;;;;;;;106.57;101.13;;;20.60;99.90;;;;;;5029598;28;20046;-73
2023/10/03 10:38:32;;;;;;;89.72;84.97;;;20.60;99.90;;;;;;5025458;28;20496;-73
2023/10/03 10:44:10;;;;;;;86.72;82.32;;;20.60;99.90;;;;;;5033791;28;20037;-74
2023/10/03 10:46:45;;;;;;;92.13;87.22;;;20.50;99.90;;;;;;5033290;28;20041;-74
2023/10/03 10:49:40;;;;;;;69.05;65.50;;;20.50;99.90;;;;;;5028096;28;20041;-74
2023/10/03 10:52:07;;;;;;;89.25;84.43;;;20.60;99.90;;;;;;5016355;28;20053;-73
2023/10/03 10:54:35;;;;;;;101.28;96.03;;;20.70;99.90;;;;;;5029898;28;20040;-74
2023/10/03 10:57:09;;;;;;;117.22;111.22;;;20.90;99.90;;;;;;5029892;28;20052;-73
2023/10/03 10:59:35;;;;;;;101.55;96.35;;;20.90;99.90;;;;;;5032466;28;20050;-73
2023/10/03 11:02:06;;;;;;;108.85;103.43;;;20.80;99.90;;;;;;5032264;28;20040;-73
2023/10/03 11:04:33;;;;;;;128.25;121.80;;;20.70;99.90;;;;;;5031586;28;20037;-73
2023/10/03 11:06:59;;;;;;;147.15;139.75;;;20.70;99.90;;;;;;5029638;28;20396;-73
2023/10/03 11:09:25;;;;;;;115.68;109.75;;;20.70;99.90;;;;;;5030797;28;20029;-73
2023/10/03 11:11:51;;;;;;;161.55;153.63;;;20.80;99.90;;;;;;5032059;28;20044;-73
2023/10/03 11:14:31;;;;;;;111.32;105.85;;;20.90;99.90;;;;;;5033187;28;20514;-73
2023/10/03 11:17:01;;;;;;;133.40;126.55;;;20.80;99.90;;;;;;5032919;28;20408;-73
2023/10/03 11:19:30;;;;;;;139.23;132.40;;;20.80;99.90;;;;;;5014958;28;20045;-74
2023/10/03 11:21:56;;;;;;;138.77;131.90;;;20.90;99.90;;;;;;5011714;28;20040;-74
2023/10/03 11:24:23;;;;;;;138.70;131.93;;;20.90;99.90;;;;;;4995107;28;20038;-73
2023/10/03 11:26:50;;;;;;;169.15;160.82;;;20.90;99.90;;;;;;5020493;28;20045;-73
2023/10/03 11:29:35;;;;;;;178.68;169.90;;;20.90;99.90;;;;;;5032722;28;20033;-74
2023/10/03 11:32:02;;;;;;;115.70;109.88;;;21.10;99.90;;;;;;5032003;28;20044;-74
2023/10/03 11:34:34;;;;;;;147.60;140.43;;;21.30;99.90;;;;;;5031625;28;20043;-74
2023/10/03 11:37:03;;;;;;;167.18;159.05;;;21.30;99.90;;;;;;5024605;28;20049;-73
2023/10/03 11:39:35;;;;;;;150.20;142.60;;;21.50;99.90;;;;;;5032039;28;20041;-73
2023/10/03 11:42:07;;;;;;;159.38;151.65;;;21.60;99.90;;;;;;5031370;28;20036;-74
2023/10/03 11:44:33;;;;;;;161.73;153.70;;;21.70;99.90;;;;;;5031419;28;20029;-74
2023/10/03 11:47:00;;;;;;;188.02;178.80;;;21.70;99.90;;;;;;5024714;28;20524;-73
2023/10/03 11:49:27;;;;;;;187.55;178.55;;;21.80;99.90;;;;;;5021802;28;20400;-73
2023/10/03 11:51:53;;;;;;;200.35;190.57;;;21.80;99.90;;;;;;5032298;28;20400;-74
2023/10/03 11:54:20;;;;;;;195.07;185.68;;;22.00;99.90;;;;;;5032417;28;20033;-73
2023/10/03 11:56:47;;;;;;;231.63;220.57;;;22.00;99.90;;;;;;5042441;28;20052;-73
2023/10/03 11:59:17;;;;;;;250.25;237.70;;;22.20;99.90;;;;;;5062748;28;20064;-74
2023/10/03 12:01:56;;;;;;;250.80;238.60;;;22.20;99.90;;;;;;5031488;28;20042;-74
2023/10/03 12:04:23;;;;;;;242.45;230.70;;;22.10;99.90;;;;;;5032550;28;20045;-73
2023/10/03 12:06:49;;;;;;;319.08;302.85;;;22.10;99.90;;;;;;5031137;28;20041;-74
2023/10/03 12:09:17;;;;;;;365.95;347.45;;;21.90;99.90;;;;;;5032037;28;20400;-74
2023/10/03 12:11:43;;;;;;;402.95;381.73;;;21.60;99.90;;;;;;5032114;28;20037;-73
2023/10/03 12:14:09;;;;;;;410.08;389.90;;;21.70;99.90;;;;;;5033110;28;20037;-74
2023/10/03 12:16:38;;;;;;;440.75;418.63;;;21.90;99.90;;;;;;5031440;28;20048;-73
2023/10/03 12:19:05;;;;;;;431.58;409.65;;;22.00;99.90;;;;;;5032198;28;20037;-73
2023/10/03 12:21:31;;;;;;;378.35;359.00;;;22.10;99.90;;;;;;5030797;28;20048;-74
2023/10/03 12:23:58;;;;;;;380.08;360.73;;;22.00;99.90;;;;;;5031808;28;20038;-73
2023/10/03 12:26:24;;;;;;;368.42;349.98;;;22.10;99.90;;;;;;5029704;28;20034;-74
2023/10/03 12:28:52;;;;;;;342.45;325.45;;;22.30;99.90;;;;;;5031702;28;20037;-73
2023/10/03 12:31:25;;;;;;;1999.90;999.90;;;22.40;99.90;;;;;;5029560;28;20037;-74
2023/10/03 12:33:52;;;;;;;1999.90;999.90;;;22.60;99.90;;;;;;5029786;28;20045;-74
2023/10/03 12:36:18;;;;;;;1999.90;999.90;;;22.60;99.90;;;;;;5031499;28;20030;-73